sensor_id;sensor_type;location;lat;lon;timestamp;temperature;humidity
15394;DHT22;7795;47.986;11.868;2023-02-14T00:01:22;4.50;81.00
15394;DHT22;7795;47.986;11.868;2023-02-14T00:03:48;4.40;81.00
15394;DHT22;7795;47.986;11.868;2023-02-14T00:06:14;4.40;81.00
15394;DHT22;7795;47.986;11.868;2023-02-14T00:08:41;4.40;81.00
15394;DHT22;7795;47.986;11.868;2023-02-14T00:11:09;4.40;81.10
15394;DHT22;7795;47.986;11.868;2023-02-14T00:13:35;4.40;81.10
15394;DHT22;7795;47.986;11.868;2023-02-14T00:16:00;4.40;81.10
15394;DHT22;7795;47.986;11.868;2023-02-14T00:18:28;4.40;81.20
15394;DHT22;7795;47.986;11.868;2023-02-14T00:21:13;4.40;81.20
15394;DHT22;7795;47.986;11.868;2023-02-14T00:23:39;4.40;81.20
15394;DHT22;7795;47.986;11.868;2023-02-14T00:26:12;4.40;81.20
15394;DHT22;7795;47.986;11.868;2023-02-14T00:28:38;4.40;81.20
15394;DHT22;7795;47.986;11.868;2023-02-14T00:31:03;4.30;81.10
15394;DHT22;7795;47.986;11.868;2023-02-14T00:33:31;4.30;81.20
15394;DHT22;7795;47.986;11.868;2023-02-14T00:35:56;4.30;81.20
15394;DHT22;7795;47.986;11.868;2023-02-14T00:38:22;4.30;81.20
15394;DHT22;7795;47.986;11.868;2023-02-14T00:40:48;4.30;81.10
15394;DHT22;7795;47.986;11.868;2023-02-14T00:43:13;4.30;81.10
15394;DHT22;7795;47.986;11.868;2023-02-14T00:45:39;4.30;81.00
15394;DHT22;7795;47.986;11.868;2023-02-14T00:48:05;4.30;80.80
15394;DHT22;7795;47.986;11.868;2023-02-14T00:50:32;4.30;80.60
15394;DHT22;7795;47.986;11.868;2023-02-14T00:52:58;4.20;80.50
15394;DHT22;7795;47.986;11.868;2023-02-14T00:55:23;4.20;80.50
15394;DHT22;7795;47.986;11.868;2023-02-14T00:57:49;4.10;80.50
15394;DHT22;7795;47.986;11.868;2023-02-14T01:00:15;4.10;80.50
15394;DHT22;7795;47.986;11.868;2023-02-14T01:02:41;4.10;80.60
15394;DHT22;7795;47.986;11.868;2023-02-14T01:05:07;4.10;80.70
15394;DHT22;7795;47.986;11.868;2023-02-14T01:07:34;4.10;80.90
15394;DHT22;7795;47.986;11.868;2023-02-14T01:10:00;4.00;80.90
15394;DHT22;7795;47.986;11.868;2023-02-14T01:12:26;4.00;81.00
15394;DHT22;7795;47.986;11.868;2023-02-14T01:14:51;4.00;81.00
15394;DHT22;7795;47.986;11.868;2023-02-14T01:17:17;4.00;81.00
15394;DHT22;7795;47.986;11.868;2023-02-14T01:19:43;4.00;81.10
15394;DHT22;7795;47.986;11.868;2023-02-14T01:22:09;4.00;81.10
15394;DHT22;7795;47.986;11.868;2023-02-14T01:24:36;4.00;81.00
15394;DHT22;7795;47.986;11.868;2023-02-14T01:27:02;4.00;81.00
15394;DHT22;7795;47.986;11.868;2023-02-14T01:29:28;4.00;81.00
15394;DHT22;7795;47.986;11.868;2023-02-14T01:31:54;4.00;81.00
15394;DHT22;7795;47.986;11.868;2023-02-14T01:34:19;4.00;81.00
15394;DHT22;7795;47.986;11.868;2023-02-14T01:36:45;4.00;81.10
15394;DHT22;7795;47.986;11.868;2023-02-14T01:39:14;4.00;81.20
15394;DHT22;7795;47.986;11.868;2023-02-14T01:41:45;4.00;82.00
15394;DHT22;7795;47.986;11.868;2023-02-14T01:47:17;4.00;81.40
15394;DHT22;7795;47.986;11.868;2023-02-14T01:49:44;4.00;81.20
15394;DHT22;7795;47.986;11.868;2023-02-14T01:52:14;4.00;81.30
15394;DHT22;7795;47.986;11.868;2023-02-14T01:54:43;4.00;81.30
15394;DHT22;7795;47.986;11.868;2023-02-14T01:57:14;4.00;81.30
15394;DHT22;7795;47.986;11.868;2023-02-14T01:59:46;4.00;81.50
15394;DHT22;7795;47.986;11.868;2023-02-14T02:02:15;4.00;81.50
15394;DHT22;7795;47.986;11.868;2023-02-14T02:04:51;4.00;81.50
15394;DHT22;7795;47.986;11.868;2023-02-14T02:07:20;4.00;81.50
15394;DHT22;7795;47.986;11.868;2023-02-14T02:09:50;4.00;81.50
15394;DHT22;7795;47.986;11.868;2023-02-14T02:12:18;4.00;81.60
15394;DHT22;7795;47.986;11.868;2023-02-14T02:14:44;4.00;81.60
15394;DHT22;7795;47.986;11.868;2023-02-14T02:17:19;4.00;81.60
15394;DHT22;7795;47.986;11.868;2023-02-14T02:20:09;4.00;81.70
15394;DHT22;7795;47.986;11.868;2023-02-14T02:32:29;4.10;81.70
15394;DHT22;7795;47.986;11.868;2023-02-14T02:38:19;4.10;81.70
15394;DHT22;7795;47.986;11.868;2023-02-14T02:40:51;4.00;81.50
15394;DHT22;7795;47.986;11.868;2023-02-14T02:43:29;4.00;81.50
15394;DHT22;7795;47.986;11.868;2023-02-14T02:46:03;4.00;81.60
15394;DHT22;7795;47.986;11.868;2023-02-14T02:48:55;4.00;81.60
15394;DHT22;7795;47.986;11.868;2023-02-14T02:51:32;4.00;81.70
15394;DHT22;7795;47.986;11.868;2023-02-14T02:54:22;4.00;81.70
15394;DHT22;7795;47.986;11.868;2023-02-14T02:56:56;4.00;81.60
15394;DHT22;7795;47.986;11.868;2023-02-14T02:59:26;4.00;81.60
15394;DHT22;7795;47.986;11.868;2023-02-14T03:01:56;4.00;81.70
15394;DHT22;7795;47.986;11.868;2023-02-14T03:04:25;4.00;81.70
15394;DHT22;7795;47.986;11.868;2023-02-14T03:07:12;4.00;81.80
15394;DHT22;7795;47.986;11.868;2023-02-14T03:09:58;4.00;81.90
15394;DHT22;7795;47.986;11.868;2023-02-14T03:12:48;4.00;81.90
15394;DHT22;7795;47.986;11.868;2023-02-14T03:15:21;4.00;82.10
15394;DHT22;7795;47.986;11.868;2023-02-14T03:18:01;4.00;82.00
15394;DHT22;7795;47.986;11.868;2023-02-14T03:20:36;4.00;82.00
15394;DHT22;7795;47.986;11.868;2023-02-14T03:23:08;4.00;82.00
15394;DHT22;7795;47.986;11.868;2023-02-14T03:25:42;4.00;82.00
15394;DHT22;7795;47.986;11.868;2023-02-14T03:28:15;4.00;82.00
15394;DHT22;7795;47.986;11.868;2023-02-14T03:30:47;4.00;81.90
15394;DHT22;7795;47.986;11.868;2023-02-14T03:33:21;4.00;82.60
15394;DHT22;7795;47.986;11.868;2023-02-14T03:35:55;4.00;81.80
15394;DHT22;7795;47.986;11.868;2023-02-14T03:38:31;4.00;81.80
15394;DHT22;7795;47.986;11.868;2023-02-14T03:41:01;4.00;81.90
15394;DHT22;7795;47.986;11.868;2023-02-14T03:43:30;4.00;81.90
15394;DHT22;7795;47.986;11.868;2023-02-14T03:46:02;4.10;82.00
15394;DHT22;7795;47.986;11.868;2023-02-14T03:48:31;4.00;82.00
15394;DHT22;7795;47.986;11.868;2023-02-14T03:50:59;4.10;82.00
15394;DHT22;7795;47.986;11.868;2023-02-14T03:53:30;4.10;82.70
15394;DHT22;7795;47.986;11.868;2023-02-14T03:56:00;4.10;82.00
15394;DHT22;7795;47.986;11.868;2023-02-14T03:58:29;4.10;82.00
15394;DHT22;7795;47.986;11.868;2023-02-14T04:01:01;4.10;82.00
15394;DHT22;7795;47.986;11.868;2023-02-14T04:03:28;4.10;82.00
15394;DHT22;7795;47.986;11.868;2023-02-14T04:05:57;4.10;81.90
15394;DHT22;7795;47.986;11.868;2023-02-14T04:08:25;4.10;81.90
15394;DHT22;7795;47.986;11.868;2023-02-14T04:10:53;4.10;81.90
15394;DHT22;7795;47.986;11.868;2023-02-14T04:13:20;4.10;81.90
15394;DHT22;7795;47.986;11.868;2023-02-14T04:15:46;4.10;81.90
15394;DHT22;7795;47.986;11.868;2023-02-14T04:18:12;4.00;81.90
15394;DHT22;7795;47.986;11.868;2023-02-14T04:20:56;4.10;82.00
15394;DHT22;7795;47.986;11.868;2023-02-14T04:23:22;4.00;82.00
15394;DHT22;7795;47.986;11.868;2023-02-14T04:25:48;4.10;82.10
15394;DHT22;7795;47.986;11.868;2023-02-14T04:28:15;4.10;82.20
15394;DHT22;7795;47.986;11.868;2023-02-14T04:30:41;4.10;82.20
15394;DHT22;7795;47.986;11.868;2023-02-14T04:33:07;4.10;82.20
15394;DHT22;7795;47.986;11.868;2023-02-14T04:35:33;4.10;82.20
15394;DHT22;7795;47.986;11.868;2023-02-14T04:37:59;4.10;82.20
15394;DHT22;7795;47.986;11.868;2023-02-14T04:40:25;4.10;82.00
15394;DHT22;7795;47.986;11.868;2023-02-14T04:42:51;4.10;82.00
15394;DHT22;7795;47.986;11.868;2023-02-14T04:45:18;4.10;81.90
15394;DHT22;7795;47.986;11.868;2023-02-14T04:47:44;4.10;82.00
15394;DHT22;7795;47.986;11.868;2023-02-14T04:50:10;4.10;81.90
15394;DHT22;7795;47.986;11.868;2023-02-14T04:52:36;4.10;81.90
15394;DHT22;7795;47.986;11.868;2023-02-14T04:55:02;4.10;82.00
15394;DHT22;7795;47.986;11.868;2023-02-14T04:57:29;4.10;82.00
15394;DHT22;7795;47.986;11.868;2023-02-14T04:59:54;4.10;82.00
15394;DHT22;7795;47.986;11.868;2023-02-14T05:02:22;4.10;81.90
15394;DHT22;7795;47.986;11.868;2023-02-14T05:04:47;4.10;81.70
15394;DHT22;7795;47.986;11.868;2023-02-14T05:07:13;4.00;81.60
15394;DHT22;7795;47.986;11.868;2023-02-14T05:09:39;4.00;81.60
15394;DHT22;7795;47.986;11.868;2023-02-14T05:12:05;4.00;81.60
15394;DHT22;7795;47.986;11.868;2023-02-14T05:14:31;4.00;81.70
15394;DHT22;7795;47.986;11.868;2023-02-14T05:16:56;4.00;81.70
15394;DHT22;7795;47.986;11.868;2023-02-14T05:19:24;3.90;81.70
15394;DHT22;7795;47.986;11.868;2023-02-14T05:21:49;3.90;81.70
15394;DHT22;7795;47.986;11.868;2023-02-14T05:24:15;3.90;82.50
15394;DHT22;7795;47.986;11.868;2023-02-14T05:26:41;3.90;81.70
15394;DHT22;7795;47.986;11.868;2023-02-14T05:29:07;3.90;82.50
15394;DHT22;7795;47.986;11.868;2023-02-14T05:31:33;3.80;81.90
15394;DHT22;7795;47.986;11.868;2023-02-14T05:33:58;3.80;81.90
15394;DHT22;7795;47.986;11.868;2023-02-14T05:36:26;3.80;82.00
15394;DHT22;7795;47.986;11.868;2023-02-14T05:38:52;3.80;82.10
15394;DHT22;7795;47.986;11.868;2023-02-14T05:41:17;3.90;82.20
15394;DHT22;7795;47.986;11.868;2023-02-14T05:43:43;3.80;82.30
15394;DHT22;7795;47.986;11.868;2023-02-14T05:46:09;3.90;82.30
15394;DHT22;7795;47.986;11.868;2023-02-14T05:48:34;3.90;82.30
15394;DHT22;7795;47.986;11.868;2023-02-14T05:51:03;3.90;82.30
15394;DHT22;7795;47.986;11.868;2023-02-14T05:53:30;3.90;82.30
15394;DHT22;7795;47.986;11.868;2023-02-14T05:55:56;3.90;82.30
15394;DHT22;7795;47.986;11.868;2023-02-14T05:58:21;3.90;82.20
15394;DHT22;7795;47.986;11.868;2023-02-14T06:00:47;3.90;82.10
15394;DHT22;7795;47.986;11.868;2023-02-14T06:03:13;3.90;82.00
15394;DHT22;7795;47.986;11.868;2023-02-14T06:05:39;3.90;82.00
15394;DHT22;7795;47.986;11.868;2023-02-14T06:08:04;3.90;82.10
15394;DHT22;7795;47.986;11.868;2023-02-14T06:10:32;3.90;82.10
15394;DHT22;7795;47.986;11.868;2023-02-14T06:12:57;3.90;82.10
15394;DHT22;7795;47.986;11.868;2023-02-14T06:15:23;3.90;82.10
15394;DHT22;7795;47.986;11.868;2023-02-14T06:17:53;3.90;82.10
15394;DHT22;7795;47.986;11.868;2023-02-14T06:20:20;3.90;82.20
15394;DHT22;7795;47.986;11.868;2023-02-14T06:22:46;3.90;82.10
15394;DHT22;7795;47.986;11.868;2023-02-14T06:25:12;3.90;82.00
15394;DHT22;7795;47.986;11.868;2023-02-14T06:27:39;3.90;82.00
15394;DHT22;7795;47.986;11.868;2023-02-14T06:30:06;3.90;81.90
15394;DHT22;7795;47.986;11.868;2023-02-14T06:32:32;3.90;81.90
15394;DHT22;7795;47.986;11.868;2023-02-14T06:34:57;3.80;81.90
15394;DHT22;7795;47.986;11.868;2023-02-14T06:37:23;3.90;82.00
15394;DHT22;7795;47.986;11.868;2023-02-14T06:39:49;3.80;82.00
15394;DHT22;7795;47.986;11.868;2023-02-14T06:42:15;3.80;81.90
15394;DHT22;7795;47.986;11.868;2023-02-14T06:44:42;3.80;81.80
15394;DHT22;7795;47.986;11.868;2023-02-14T06:47:07;3.80;81.90
15394;DHT22;7795;47.986;11.868;2023-02-14T06:49:33;3.80;81.80
15394;DHT22;7795;47.986;11.868;2023-02-14T06:51:59;3.80;81.70
15394;DHT22;7795;47.986;11.868;2023-02-14T06:54:25;3.80;81.90
15394;DHT22;7795;47.986;11.868;2023-02-14T06:56:51;3.70;81.90
15394;DHT22;7795;47.986;11.868;2023-02-14T06:59:16;3.70;81.90
15394;DHT22;7795;47.986;11.868;2023-02-14T07:01:43;3.70;82.00
15394;DHT22;7795;47.986;11.868;2023-02-14T07:04:09;3.70;82.10
15394;DHT22;7795;47.986;11.868;2023-02-14T07:06:35;3.70;82.00
15394;DHT22;7795;47.986;11.868;2023-02-14T07:09:01;3.70;82.00
15394;DHT22;7795;47.986;11.868;2023-02-14T07:11:27;3.70;81.90
15394;DHT22;7795;47.986;11.868;2023-02-14T07:13:53;3.70;81.90
15394;DHT22;7795;47.986;11.868;2023-02-14T07:16:18;3.70;82.00
15394;DHT22;7795;47.986;11.868;2023-02-14T07:18:46;3.70;82.20
15394;DHT22;7795;47.986;11.868;2023-02-14T07:21:11;3.70;82.20
15394;DHT22;7795;47.986;11.868;2023-02-14T07:23:37;3.70;82.30
15394;DHT22;7795;47.986;11.868;2023-02-14T07:26:03;3.70;83.10
15394;DHT22;7795;47.986;11.868;2023-02-14T07:28:29;3.70;82.30
15394;DHT22;7795;47.986;11.868;2023-02-14T07:30:58;3.70;82.30
15394;DHT22;7795;47.986;11.868;2023-02-14T07:33:24;3.70;82.30
15394;DHT22;7795;47.986;11.868;2023-02-14T07:35:51;3.70;82.30
15394;DHT22;7795;47.986;11.868;2023-02-14T07:38:17;3.70;82.40
15394;DHT22;7795;47.986;11.868;2023-02-14T07:40:43;3.70;82.30
15394;DHT22;7795;47.986;11.868;2023-02-14T07:43:08;3.80;82.30
15394;DHT22;7795;47.986;11.868;2023-02-14T07:45:34;3.80;82.30
15394;DHT22;7795;47.986;11.868;2023-02-14T07:48:00;3.80;82.30
15394;DHT22;7795;47.986;11.868;2023-02-14T07:50:27;3.80;82.40
15394;DHT22;7795;47.986;11.868;2023-02-14T07:52:55;3.80;82.30
15394;DHT22;7795;47.986;11.868;2023-02-14T07:55:20;3.80;82.20
15394;DHT22;7795;47.986;11.868;2023-02-14T07:57:47;3.80;82.30
15394;DHT22;7795;47.986;11.868;2023-02-14T08:00:14;3.80;82.30
15394;DHT22;7795;47.986;11.868;2023-02-14T08:02:39;3.80;82.30
15394;DHT22;7795;47.986;11.868;2023-02-14T08:05:06;3.90;82.40
15394;DHT22;7795;47.986;11.868;2023-02-14T08:07:32;3.90;82.30
15394;DHT22;7795;47.986;11.868;2023-02-14T08:09:59;3.90;82.30
15394;DHT22;7795;47.986;11.868;2023-02-14T08:12:25;3.90;82.30
15394;DHT22;7795;47.986;11.868;2023-02-14T08:15:09;3.90;82.20
15394;DHT22;7795;47.986;11.868;2023-02-14T08:17:54;4.00;82.20
15394;DHT22;7795;47.986;11.868;2023-02-14T08:20:20;4.00;82.10
15394;DHT22;7795;47.986;11.868;2023-02-14T08:22:46;4.00;82.00
15394;DHT22;7795;47.986;11.868;2023-02-14T08:25:13;4.00;82.10
15394;DHT22;7795;47.986;11.868;2023-02-14T08:27:39;4.00;82.10
15394;DHT22;7795;47.986;11.868;2023-02-14T08:30:06;4.00;81.90
15394;DHT22;7795;47.986;11.868;2023-02-14T08:32:33;4.00;81.90
15394;DHT22;7795;47.986;11.868;2023-02-14T08:34:59;4.10;81.80
15394;DHT22;7795;47.986;11.868;2023-02-14T08:37:25;4.10;82.50
15394;DHT22;7795;47.986;11.868;2023-02-14T08:39:50;4.10;81.70
15394;DHT22;7795;47.986;11.868;2023-02-14T08:42:18;4.10;81.70
15394;DHT22;7795;47.986;11.868;2023-02-14T08:44:43;4.20;81.90
15394;DHT22;7795;47.986;11.868;2023-02-14T08:47:09;4.20;81.80
15394;DHT22;7795;47.986;11.868;2023-02-14T08:49:35;4.20;81.80
15394;DHT22;7795;47.986;11.868;2023-02-14T08:52:01;4.20;81.80
15394;DHT22;7795;47.986;11.868;2023-02-14T08:54:26;4.20;82.50
15394;DHT22;7795;47.986;11.868;2023-02-14T08:56:52;4.30;81.80
15394;DHT22;7795;47.986;11.868;2023-02-14T08:59:19;4.30;82.50
15394;DHT22;7795;47.986;11.868;2023-02-14T09:01:45;4.30;81.90
15394;DHT22;7795;47.986;11.868;2023-02-14T09:04:11;4.40;82.00
15394;DHT22;7795;47.986;11.868;2023-02-14T09:06:37;4.40;81.90
15394;DHT22;7795;47.986;11.868;2023-02-14T09:09:03;4.40;81.80
15394;DHT22;7795;47.986;11.868;2023-02-14T09:11:29;4.40;81.80
15394;DHT22;7795;47.986;11.868;2023-02-14T09:13:56;4.50;81.80
15394;DHT22;7795;47.986;11.868;2023-02-14T09:16:24;4.50;82.50
15394;DHT22;7795;47.986;11.868;2023-02-14T09:18:51;4.50;81.70
15394;DHT22;7795;47.986;11.868;2023-02-14T09:21:21;4.50;81.70
15394;DHT22;7795;47.986;11.868;2023-02-14T09:23:47;4.60;81.80
15394;DHT22;7795;47.986;11.868;2023-02-14T09:26:14;4.70;81.80
15394;DHT22;7795;47.986;11.868;2023-02-14T09:28:40;4.70;81.70
15394;DHT22;7795;47.986;11.868;2023-02-14T09:31:11;4.70;81.60
15394;DHT22;7795;47.986;11.868;2023-02-14T09:33:39;4.80;81.60
15394;DHT22;7795;47.986;11.868;2023-02-14T09:36:05;4.80;81.60
15394;DHT22;7795;47.986;11.868;2023-02-14T09:38:50;4.90;81.60
15394;DHT22;7795;47.986;11.868;2023-02-14T09:41:40;4.90;81.50
15394;DHT22;7795;47.986;11.868;2023-02-14T09:44:15;5.00;81.50
15394;DHT22;7795;47.986;11.868;2023-02-14T09:46:47;5.00;81.20
15394;DHT22;7795;47.986;11.868;2023-02-14T09:49:28;5.00;81.00
15394;DHT22;7795;47.986;11.868;2023-02-14T09:51:55;5.00;80.80
15394;DHT22;7795;47.986;11.868;2023-02-14T09:54:25;5.00;80.80
15394;DHT22;7795;47.986;11.868;2023-02-14T09:56:57;5.00;80.90
15394;DHT22;7795;47.986;11.868;2023-02-14T09:59:28;5.00;81.00
15394;DHT22;7795;47.986;11.868;2023-02-14T10:01:59;5.00;81.00
15394;DHT22;7795;47.986;11.868;2023-02-14T10:04:38;5.00;81.20
15394;DHT22;7795;47.986;11.868;2023-02-14T10:07:10;5.10;81.30
15394;DHT22;7795;47.986;11.868;2023-02-14T10:09:56;5.10;81.20
15394;DHT22;7795;47.986;11.868;2023-02-14T10:12:27;5.10;81.20
15394;DHT22;7795;47.986;11.868;2023-02-14T10:14:56;5.20;81.40
15394;DHT22;7795;47.986;11.868;2023-02-14T10:17:34;5.20;81.50
15394;DHT22;7795;47.986;11.868;2023-02-14T10:20:04;5.30;81.80
15394;DHT22;7795;47.986;11.868;2023-02-14T10:22:37;5.40;81.90
15394;DHT22;7795;47.986;11.868;2023-02-14T10:25:07;5.50;81.80
15394;DHT22;7795;47.986;11.868;2023-02-14T10:27:39;5.50;81.70
15394;DHT22;7795;47.986;11.868;2023-02-14T10:30:11;5.60;81.60
15394;DHT22;7795;47.986;11.868;2023-02-14T10:32:44;5.60;81.40
15394;DHT22;7795;47.986;11.868;2023-02-14T10:35:19;5.70;81.30
15394;DHT22;7795;47.986;11.868;2023-02-14T10:37:54;5.80;81.30
15394;DHT22;7795;47.986;11.868;2023-02-14T10:40:42;5.90;81.30
15394;DHT22;7795;47.986;11.868;2023-02-14T10:43:19;6.00;81.20
15394;DHT22;7795;47.986;11.868;2023-02-14T10:45:54;6.00;81.20
15394;DHT22;7795;47.986;11.868;2023-02-14T10:48:29;6.10;81.20
15394;DHT22;7795;47.986;11.868;2023-02-14T10:51:05;6.20;81.20
15394;DHT22;7795;47.986;11.868;2023-02-14T10:53:41;6.20;81.00
15394;DHT22;7795;47.986;11.868;2023-02-14T10:56:15;6.30;80.90
15394;DHT22;7795;47.986;11.868;2023-02-14T10:58:45;6.40;81.00
15394;DHT22;7795;47.986;11.868;2023-02-14T11:01:12;6.40;81.00
15394;DHT22;7795;47.986;11.868;2023-02-14T11:03:40;6.50;81.00
15394;DHT22;7795;47.986;11.868;2023-02-14T11:06:08;6.50;80.80
15394;DHT22;7795;47.986;11.868;2023-02-14T11:08:36;6.60;80.70
15394;DHT22;7795;47.986;11.868;2023-02-14T11:11:07;6.60;80.70
15394;DHT22;7795;47.986;11.868;2023-02-14T11:13:38;6.70;80.70
15394;DHT22;7795;47.986;11.868;2023-02-14T11:16:06;6.70;80.60
15394;DHT22;7795;47.986;11.868;2023-02-14T11:18:34;6.70;80.50
15394;DHT22;7795;47.986;11.868;2023-02-14T11:21:10;6.80;80.50
15394;DHT22;7795;47.986;11.868;2023-02-14T11:23:38;6.80;80.40
15394;DHT22;7795;47.986;11.868;2023-02-14T11:26:09;6.90;80.50
15394;DHT22;7795;47.986;11.868;2023-02-14T11:28:42;6.90;80.40
15394;DHT22;7795;47.986;11.868;2023-02-14T11:31:09;6.90;80.40
15394;DHT22;7795;47.986;11.868;2023-02-14T11:33:38;7.00;80.30
15394;DHT22;7795;47.986;11.868;2023-02-14T11:36:11;7.00;80.20
15394;DHT22;7795;47.986;11.868;2023-02-14T11:38:38;7.00;80.00
15394;DHT22;7795;47.986;11.868;2023-02-14T11:41:06;7.10;80.00
15394;DHT22;7795;47.986;11.868;2023-02-14T11:43:34;7.10;79.90
15394;DHT22;7795;47.986;11.868;2023-02-14T11:46:12;7.10;80.00
15394;DHT22;7795;47.986;11.868;2023-02-14T11:48:54;7.10;80.10
15394;DHT22;7795;47.986;11.868;2023-02-14T11:51:29;7.20;80.00
15394;DHT22;7795;47.986;11.868;2023-02-14T11:53:57;7.20;80.00
15394;DHT22;7795;47.986;11.868;2023-02-14T11:56:47;7.20;80.20
15394;DHT22;7795;47.986;11.868;2023-02-14T11:59:27;7.30;80.10
15394;DHT22;7795;47.986;11.868;2023-02-14T12:01:55;7.30;80.20
15394;DHT22;7795;47.986;11.868;2023-02-14T12:04:30;7.40;80.30
15394;DHT22;7795;47.986;11.868;2023-02-14T12:07:12;7.40;80.50
15394;DHT22;7795;47.986;11.868;2023-02-14T12:09:38;7.50;80.60
15394;DHT22;7795;47.986;11.868;2023-02-14T12:12:16;7.60;80.70
15394;DHT22;7795;47.986;11.868;2023-02-14T12:14:43;7.60;80.60
15394;DHT22;7795;47.986;11.868;2023-02-14T12:17:17;7.70;80.70
15394;DHT22;7795;47.986;11.868;2023-02-14T12:19:48;7.80;80.70
15394;DHT22;7795;47.986;11.868;2023-02-14T12:22:18;7.90;80.60
15394;DHT22;7795;47.986;11.868;2023-02-14T12:24:51;8.10;80.50
15394;DHT22;7795;47.986;11.868;2023-02-14T12:27:21;8.10;80.50
15394;DHT22;7795;47.986;11.868;2023-02-14T12:29:52;8.20;80.50
15394;DHT22;7795;47.986;11.868;2023-02-14T12:32:21;8.30;80.40
15394;DHT22;7795;47.986;11.868;2023-02-14T12:34:48;8.40;80.40
15394;DHT22;7795;47.986;11.868;2023-02-14T12:37:33;8.50;80.40
15394;DHT22;7795;47.986;11.868;2023-02-14T12:40:14;8.60;80.30
15394;DHT22;7795;47.986;11.868;2023-02-14T12:42:58;8.70;80.20
15394;DHT22;7795;47.986;11.868;2023-02-14T12:45:34;8.90;80.20
15394;DHT22;7795;47.986;11.868;2023-02-14T12:48:16;8.90;80.10
15394;DHT22;7795;47.986;11.868;2023-02-14T12:50:50;9.00;79.80
15394;DHT22;7795;47.986;11.868;2023-02-14T12:53:46;9.10;79.70
15394;DHT22;7795;47.986;11.868;2023-02-14T12:56:22;9.20;79.30
15394;DHT22;7795;47.986;11.868;2023-02-14T12:58:56;9.30;79.40
15394;DHT22;7795;47.986;11.868;2023-02-14T13:04:56;9.60;78.70
15394;DHT22;7795;47.986;11.868;2023-02-14T13:07:35;9.60;78.50
15394;DHT22;7795;47.986;11.868;2023-02-14T13:10:13;9.70;78.10
15394;DHT22;7795;47.986;11.868;2023-02-14T13:12:43;9.80;77.50
15394;DHT22;7795;47.986;11.868;2023-02-14T13:15:19;9.80;77.50
15394;DHT22;7795;47.986;11.868;2023-02-14T13:17:51;9.90;77.10
15394;DHT22;7795;47.986;11.868;2023-02-14T13:20:39;9.90;77.30
15394;DHT22;7795;47.986;11.868;2023-02-14T13:23:12;10.00;76.80
15394;DHT22;7795;47.986;11.868;2023-02-14T13:25:42;10.10;77.00
15394;DHT22;7795;47.986;11.868;2023-02-14T13:28:15;10.10;77.00
15394;DHT22;7795;47.986;11.868;2023-02-14T13:30:41;10.10;76.80
15394;DHT22;7795;47.986;11.868;2023-02-14T13:33:13;10.20;76.70
15394;DHT22;7795;47.986;11.868;2023-02-14T13:35:44;10.20;76.60
15394;DHT22;7795;47.986;11.868;2023-02-14T13:38:12;10.30;76.70
15394;DHT22;7795;47.986;11.868;2023-02-14T13:40:41;10.40;76.40
15394;DHT22;7795;47.986;11.868;2023-02-14T13:43:07;10.40;76.20
15394;DHT22;7795;47.986;11.868;2023-02-14T13:46:03;10.50;76.10
15394;DHT22;7795;47.986;11.868;2023-02-14T13:48:29;10.50;75.00
15394;DHT22;7795;47.986;11.868;2023-02-14T13:50:56;10.60;75.90
15394;DHT22;7795;47.986;11.868;2023-02-14T13:53:34;10.60;75.60
15394;DHT22;7795;47.986;11.868;2023-02-14T13:56:04;10.70;75.10
15394;DHT22;7795;47.986;11.868;2023-02-14T13:58:31;10.70;75.10
15394;DHT22;7795;47.986;11.868;2023-02-14T14:00:57;10.80;75.20
15394;DHT22;7795;47.986;11.868;2023-02-14T14:03:53;10.80;75.00
15394;DHT22;7795;47.986;11.868;2023-02-14T14:06:19;10.80;74.20
15394;DHT22;7795;47.986;11.868;2023-02-14T14:08:48;10.90;75.10
15394;DHT22;7795;47.986;11.868;2023-02-14T14:14:30;11.00;74.00
15394;DHT22;7795;47.986;11.868;2023-02-14T14:17:03;11.00;74.40
15394;DHT22;7795;47.986;11.868;2023-02-14T14:19:37;11.10;74.90
15394;DHT22;7795;47.986;11.868;2023-02-14T14:22:04;11.10;74.60
15394;DHT22;7795;47.986;11.868;2023-02-14T14:24:32;11.10;74.80
15394;DHT22;7795;47.986;11.868;2023-02-14T14:26:59;11.20;74.40
15394;DHT22;7795;47.986;11.868;2023-02-14T14:29:31;11.20;74.10
15394;DHT22;7795;47.986;11.868;2023-02-14T14:31:58;11.20;73.90
15394;DHT22;7795;47.986;11.868;2023-02-14T14:34:26;11.20;74.80
15394;DHT22;7795;47.986;11.868;2023-02-14T14:37:00;11.30;74.10
15394;DHT22;7795;47.986;11.868;2023-02-14T14:39:28;11.30;74.00
15394;DHT22;7795;47.986;11.868;2023-02-14T14:41:55;11.30;74.30
15394;DHT22;7795;47.986;11.868;2023-02-14T14:44:21;11.40;74.40
15394;DHT22;7795;47.986;11.868;2023-02-14T14:46:48;11.40;74.40
15394;DHT22;7795;47.986;11.868;2023-02-14T14:49:15;11.40;74.20
15394;DHT22;7795;47.986;11.868;2023-02-14T14:51:41;11.50;74.20
15394;DHT22;7795;47.986;11.868;2023-02-14T14:54:13;11.50;74.30
15394;DHT22;7795;47.986;11.868;2023-02-14T14:56:47;11.50;74.10
15394;DHT22;7795;47.986;11.868;2023-02-14T14:59:16;11.50;74.10
15394;DHT22;7795;47.986;11.868;2023-02-14T15:01:43;11.50;74.20
15394;DHT22;7795;47.986;11.868;2023-02-14T15:04:17;11.50;74.10
15394;DHT22;7795;47.986;11.868;2023-02-14T15:06:43;11.50;73.80
15394;DHT22;7795;47.986;11.868;2023-02-14T15:09:15;11.50;73.90
15394;DHT22;7795;47.986;11.868;2023-02-14T15:11:43;11.50;73.70
15394;DHT22;7795;47.986;11.868;2023-02-14T15:14:31;11.40;73.80
15394;DHT22;7795;47.986;11.868;2023-02-14T15:16:59;11.40;73.80
15394;DHT22;7795;47.986;11.868;2023-02-14T15:19:30;11.40;73.70
15394;DHT22;7795;47.986;11.868;2023-02-14T15:22:03;11.40;73.50
15394;DHT22;7795;47.986;11.868;2023-02-14T15:24:29;11.40;73.50
15394;DHT22;7795;47.986;11.868;2023-02-14T15:26:58;11.30;73.50
15394;DHT22;7795;47.986;11.868;2023-02-14T15:29:26;11.30;73.40
15394;DHT22;7795;47.986;11.868;2023-02-14T15:31:54;11.30;73.40
15394;DHT22;7795;47.986;11.868;2023-02-14T15:34:23;11.30;74.10
15394;DHT22;7795;47.986;11.868;2023-02-14T15:36:51;11.30;73.30
15394;DHT22;7795;47.986;11.868;2023-02-14T15:39:24;11.20;73.20
15394;DHT22;7795;47.986;11.868;2023-02-14T15:41:52;11.20;73.30
15394;DHT22;7795;47.986;11.868;2023-02-14T15:44:21;11.10;73.30
15394;DHT22;7795;47.986;11.868;2023-02-14T15:46:48;11.10;73.20
15394;DHT22;7795;47.986;11.868;2023-02-14T15:49:21;11.00;73.20
15394;DHT22;7795;47.986;11.868;2023-02-14T15:51:50;11.00;73.10
15394;DHT22;7795;47.986;11.868;2023-02-14T15:54:19;11.00;73.20
15394;DHT22;7795;47.986;11.868;2023-02-14T15:56:48;10.90;73.00
15394;DHT22;7795;47.986;11.868;2023-02-14T15:59:16;10.90;73.00
15394;DHT22;7795;47.986;11.868;2023-02-14T16:01:49;10.80;72.80
15394;DHT22;7795;47.986;11.868;2023-02-14T16:04:22;10.80;73.40
15394;DHT22;7795;47.986;11.868;2023-02-14T16:07:09;10.70;72.60
15394;DHT22;7795;47.986;11.868;2023-02-14T16:09:40;10.70;72.50
15394;DHT22;7795;47.986;11.868;2023-02-14T16:12:27;10.60;72.90
15394;DHT22;7795;47.986;11.868;2023-02-14T16:15:07;10.60;72.50
15394;DHT22;7795;47.986;11.868;2023-02-14T16:17:35;10.50;72.60
15394;DHT22;7795;47.986;11.868;2023-02-14T16:23:24;10.40;72.40
15394;DHT22;7795;47.986;11.868;2023-02-14T16:25:50;10.30;72.30